createdAt,value
2023-03-04T00:13:54.535Z,1015.31
2023-03-04T00:28:54.723Z,1015.29
2023-03-04T00:43:55.390Z,1015.33
2023-03-04T00:58:56.900Z,1015.13
2023-03-04T01:13:57.484Z,1015.00
2023-03-04T01:28:58.680Z,1014.72
2023-03-04T01:43:59.436Z,1014.56
2023-03-04T01:58:59.804Z,1014.54
2023-03-04T02:14:00.785Z,1014.38
2023-03-04T02:29:01.128Z,1014.15
2023-03-04T02:44:01.279Z,1014.00
2023-03-04T02:59:01.527Z,1013.89
2023-03-04T03:14:01.684Z,1013.75
2023-03-04T03:29:03.192Z,1013.65
2023-03-04T03:44:03.358Z,1013.55
2023-03-04T03:59:04.027Z,1013.46
2023-03-04T04:14:05.092Z,1013.37
2023-03-04T04:29:05.438Z,1013.28
2023-03-04T04:44:06.077Z,1013.22
2023-03-04T04:59:07.190Z,1013.19
2023-03-04T05:14:06.973Z,1013.08
2023-03-04T05:29:07.635Z,1013.16
2023-03-04T05:44:09.139Z,1012.98
2023-03-04T05:59:09.158Z,1013.02
2023-03-04T06:14:09.346Z,1013.05
2023-03-04T06:29:09.433Z,1013.01
2023-03-04T06:44:09.581Z,1013.08
2023-03-04T06:59:11.056Z,1013.19
2023-03-04T07:14:11.330Z,1013.28
2023-03-04T07:29:11.499Z,1013.29
2023-03-04T07:44:13.267Z,1013.16
2023-03-04T07:59:14.602Z,1013.10
2023-03-04T08:14:14.613Z,1013.08
2023-03-04T08:29:14.761Z,1013.16
2023-03-04T08:44:15.699Z,1013.07
2023-03-04T08:59:16.130Z,1012.90
2023-03-04T09:14:16.292Z,1012.97
2023-03-04T09:29:16.523Z,1013.14
2023-03-04T09:44:17.126Z,1013.25
2023-03-04T09:59:17.855Z,1013.19
2023-03-04T10:14:18.155Z,1013.25
2023-03-04T10:29:19.069Z,1013.17
2023-03-04T10:44:18.867Z,1013.22
2023-03-04T10:59:19.148Z,1013.38
2023-03-04T11:14:19.468Z,1013.36
2023-03-04T11:29:21.484Z,1013.46
2023-03-04T11:44:22.480Z,1013.41
2023-03-04T11:59:22.589Z,1013.31
2023-03-04T12:14:23.165Z,1013.39
2023-03-04T12:29:23.544Z,1013.41
2023-03-04T12:44:23.965Z,1013.34
2023-03-04T12:59:24.607Z,1013.36
2023-03-04T13:14:25.180Z,1013.30
2023-03-04T13:29:26.227Z,1013.29
2023-03-04T13:44:26.621Z,1013.33
2023-03-04T13:59:27.507Z,1013.29
2023-03-04T14:14:28.668Z,1013.28
2023-03-04T14:29:29.260Z,1013.27
2023-03-04T14:44:29.755Z,1013.22
2023-03-04T14:59:30.379Z,1013.09
2023-03-04T15:14:30.972Z,1013.10
2023-03-04T15:29:31.611Z,1012.97
2023-03-04T15:44:32.575Z,1012.93
2023-03-04T15:59:32.789Z,1012.87
2023-03-04T16:14:34.530Z,1012.83
2023-03-04T16:29:36.052Z,1012.85
2023-03-04T16:44:36.668Z,1012.83
2023-03-04T16:59:37.232Z,1012.96
2023-03-04T17:14:37.821Z,1013.09
2023-03-04T17:29:38.839Z,1013.16
2023-03-04T17:44:39.443Z,1013.17
2023-03-04T17:59:39.669Z,1013.24
2023-03-04T18:14:40.653Z,1013.19
2023-03-04T18:29:40.867Z,1013.18
2023-03-04T18:44:41.853Z,1013.12
2023-03-04T18:59:42.060Z,1013.13
2023-03-04T19:14:42.767Z,1013.18
2023-03-04T19:29:43.704Z,1013.17
2023-03-04T19:44:45.111Z,1013.17
2023-03-04T19:59:45.960Z,1013.38
2023-03-04T20:14:48.101Z,1013.36
2023-03-04T20:29:48.688Z,1013.34
2023-03-04T20:44:49.226Z,1013.36
2023-03-04T20:59:50.421Z,1013.10
2023-03-04T21:14:51.468Z,1012.96
2023-03-04T21:29:52.517Z,1013.04
2023-03-04T21:44:52.785Z,1013.06
2023-03-04T21:59:53.358Z,1012.85
2023-03-04T22:14:54.329Z,1012.74
2023-03-04T22:29:54.979Z,1012.48
2023-03-04T22:44:55.688Z,1012.35
2023-03-04T22:59:55.818Z,1012.21
2023-03-04T23:14:56.902Z,1012.11
2023-03-04T23:29:58.443Z,1011.99
2023-03-04T23:44:58.585Z,1011.87
2023-03-04T23:59:59.631Z,1011.68
